Time;durP1;ratioP1;P1;durP2;ratioP2;P2;SDS_P1;SDS_P2;PMS_P1;PMS_P2;Temp;Humidity;BMP_temperature;BMP_pressure;BME280_temperature;BME280_humidity;BME280_pressure;Samples;Min_cycle;Max_cycle;Signal;HPM_P1;HPM_P2
2023/07/06 00:02:21;;;;;;;2.88;1.75;;;13.50;99.90;;;;;;4999136;28;19957;-41
2023/07/06 00:04:46;;;;;;;2.92;1.88;;;13.50;99.90;;;;;;4996230;28;20124;-39
2023/07/06 00:07:18;;;;;;;5.00;1.70;;;13.50;99.90;;;;;;5001448;28;20503;-39
2023/07/06 00:09:45;;;;;;;3.00;1.88;;;13.50;99.90;;;;;;5002011;28;20035;-38
2023/07/06 00:12:10;;;;;;;2.63;1.73;;;13.60;99.90;;;;;;4998526;28;20068;-40
2023/07/06 00:14:36;;;;;;;2.28;1.65;;;13.60;99.90;;;;;;5002162;28;20026;-38
2023/07/06 00:17:12;;;;;;;3.20;1.92;;;13.60;99.90;;;;;;5001065;28;20044;-38
2023/07/06 00:19:38;;;;;;;2.47;1.90;;;13.70;99.90;;;;;;4998911;28;20025;-41
2023/07/06 00:22:04;;;;;;;4.20;2.60;;;13.60;99.90;;;;;;4998856;28;20041;-40
2023/07/06 00:24:30;;;;;;;3.92;1.77;;;13.70;99.90;;;;;;4999169;28;20034;-37
2023/07/06 00:26:56;;;;;;;2.50;1.80;;;13.60;99.90;;;;;;4997197;28;20025;-41
2023/07/06 00:29:22;;;;;;;3.45;1.77;;;13.60;99.90;;;;;;4996341;28;20112;-40
2023/07/06 00:32:04;;;;;;;2.85;1.88;;;13.50;99.90;;;;;;5000482;28;20104;-41
2023/07/06 00:34:34;;;;;;;3.92;2.10;;;13.30;99.90;;;;;;5002098;28;20038;-41
2023/07/06 00:37:02;;;;;;;2.95;2.25;;;13.20;99.90;;;;;;4998381;28;20341;-41
2023/07/06 00:39:27;;;;;;;3.03;1.70;;;13.00;99.90;;;;;;4997451;28;20069;-40
2023/07/06 00:41:53;;;;;;;2.10;1.90;;;13.10;99.90;;;;;;4989754;28;20136;-40
2023/07/06 00:44:51;;;;;;;3.63;1.90;;;13.10;99.90;;;;;;4998420;28;20044;-41
2023/07/06 00:47:18;;;;;;;;;;;13.10;99.90;;;;;;5006219;28;20026;-41
2023/07/06 00:49:45;;;;;;;2.70;2.00;;;13.20;99.90;;;;;;5000555;28;20754;-40
2023/07/06 00:52:11;;;;;;;5.05;2.00;;;13.20;99.90;;;;;;5001108;28;20045;-34
2023/07/06 00:54:42;;;;;;;2.42;1.80;;;13.30;99.90;;;;;;5006929;28;20034;-41
2023/07/06 00:57:13;;;;;;;2.72;1.95;;;13.30;99.90;;;;;;5005499;28;20029;-41
2023/07/06 00:59:40;;;;;;;3.53;2.22;;;13.30;99.90;;;;;;5004346;28;20530;-37
2023/07/06 01:02:08;;;;;;;4.47;1.92;;;13.20;99.90;;;;;;5002684;28;20044;-41
2023/07/06 01:04:34;;;;;;;2.72;1.67;;;13.20;99.90;;;;;;4999723;28;20030;-40
2023/07/06 01:07:00;;;;;;;3.10;1.90;;;13.10;99.90;;;;;;5005789;28;20111;-40
2023/07/06 01:09:29;;;;;;;4.57;1.83;;;13.10;99.90;;;;;;5000946;28;20030;-37
2023/07/06 01:11:55;;;;;;;2.15;1.70;;;13.00;99.90;;;;;;5003401;28;20045;-38
2023/07/06 01:14:21;;;;;;;4.43;1.85;;;12.90;99.90;;;;;;5004958;28;20132;-41
2023/07/06 01:16:59;;;;;;;2.33;2.03;;;13.00;99.90;;;;;;5000270;28;20125;-35
2023/07/06 01:19:56;;;;;;;4.20;2.10;;;12.80;99.90;;;;;;5003809;28;20065;-41
2023/07/06 01:22:47;;;;;;;2.60;2.08;;;12.80;99.90;;;;;;5001961;28;20513;-40
2023/07/06 01:26:04;;;;;;;2.67;1.85;;;12.80;99.90;;;;;;5001965;28;20463;-40
2023/07/06 01:28:45;;;;;;;5.00;1.95;;;12.80;99.90;;;;;;4972181;28;20049;-41
2023/07/06 01:31:54;;;;;;;2.72;2.25;;;12.80;99.90;;;;;;4997329;28;20033;-33
2023/07/06 01:34:43;;;;;;;3.65;2.30;;;12.70;99.90;;;;;;4999169;28;20091;-41
2023/07/06 01:37:22;;;;;;;5.00;2.40;;;12.70;99.90;;;;;;5003355;28;20202;-41
2023/07/06 01:39:48;;;;;;;3.42;1.95;;;12.60;99.90;;;;;;5007299;28;20030;-41
2023/07/06 01:42:25;;;;;;;2.50;2.08;;;12.60;99.90;;;;;;4989838;28;20121;-41
2023/07/06 01:44:51;;;;;;;2.10;1.90;;;12.50;99.90;;;;;;5002729;28;20071;-38
2023/07/06 01:47:19;;;;;;;2.35;1.83;;;12.40;99.90;;;;;;5005581;28;20128;-41
2023/07/06 01:49:49;;;;;;;3.33;2.10;;;12.10;99.90;;;;;;4989825;28;20031;-38
2023/07/06 01:52:24;;;;;;;1.85;1.70;;;12.20;99.90;;;;;;4982200;28;20542;-40
2023/07/06 01:55:08;;;;;;;3.50;2.38;;;12.20;99.90;;;;;;5003241;28;20559;-41
2023/07/06 01:57:43;;;;;;;3.33;2.10;;;12.20;99.90;;;;;;5004926;28;20559;-41
2023/07/06 02:00:14;;;;;;;4.18;1.92;;;12.30;99.90;;;;;;5003869;28;20065;-41
2023/07/06 02:02:42;;;;;;;3.17;2.00;;;12.30;99.90;;;;;;5000522;28;20722;-42
2023/07/06 02:05:08;;;;;;;2.75;1.73;;;12.30;99.90;;;;;;5005916;28;20652;-38
2023/07/06 02:07:35;;;;;;;1.80;1.65;;;12.20;99.90;;;;;;5006014;28;20033;-40
2023/07/06 02:10:01;;;;;;;1.95;1.75;;;12.20;99.90;;;;;;5004049;28;20064;-41
2023/07/06 02:12:27;;;;;;;2.67;2.00;;;12.20;99.90;;;;;;5001337;28;20029;-40
2023/07/06 02:14:53;;;;;;;2.38;1.90;;;12.20;99.90;;;;;;5003113;28;20371;-39
2023/07/06 02:17:20;;;;;;;2.00;1.70;;;12.10;99.90;;;;;;4999429;28;20034;-41
2023/07/06 02:19:46;;;;;;;2.30;1.90;;;11.80;99.90;;;;;;5000197;28;20356;-41
2023/07/06 02:22:11;;;;;;;3.03;1.73;;;11.70;99.90;;;;;;5000102;28;20033;-40
2023/07/06 02:24:38;;;;;;;3.05;1.83;;;11.70;99.90;;;;;;5002651;28;20137;-42
2023/07/06 02:27:05;;;;;;;2.05;1.50;;;11.80;99.90;;;;;;5006859;28;20677;-41
2023/07/06 02:29:33;;;;;;;2.30;1.77;;;11.70;99.90;;;;;;5007008;28;20383;-41
2023/07/06 02:31:58;;;;;;;3.13;2.05;;;11.70;99.90;;;;;;5002358;28;20049;-39
2023/07/06 02:34:27;;;;;;;2.70;1.90;;;11.70;99.90;;;;;;5001625;28;20504;-37
2023/07/06 02:36:54;;;;;;;2.30;2.10;;;11.80;99.90;;;;;;4998519;28;20045;-41
2023/07/06 02:39:23;;;;;;;3.53;2.20;;;11.80;99.90;;;;;;5000076;28;20585;-38
2023/07/06 02:41:52;;;;;;;3.85;2.17;;;11.80;99.90;;;;;;5000522;28;20034;-40
2023/07/06 02:44:19;;;;;;;3.10;2.25;;;11.80;99.90;;;;;;4999934;28;20048;-39
2023/07/06 02:46:46;;;;;;;3.90;2.25;;;11.80;99.90;;;;;;5002470;28;20032;-38
2023/07/06 02:49:12;;;;;;;2.70;2.00;;;11.60;99.90;;;;;;5004463;28;20056;-38
2023/07/06 02:51:38;;;;;;;3.08;2.40;;;11.50;99.90;;;;;;5004707;28;20483;-39
2023/07/06 02:54:04;;;;;;;2.50;1.73;;;11.50;99.90;;;;;;5001268;28;20050;-40
2023/07/06 02:56:30;;;;;;;3.83;2.08;;;11.60;99.90;;;;;;5002127;28;20073;-36
2023/07/06 02:58:56;;;;;;;2.42;1.90;;;11.60;99.90;;;;;;4999429;28;20030;-39
2023/07/06 03:01:21;;;;;;;3.67;1.90;;;11.50;99.90;;;;;;5006172;28;20687;-39
2023/07/06 03:03:47;;;;;;;3.13;1.75;;;11.50;99.90;;;;;;5023067;28;20518;-42
2023/07/06 03:06:13;;;;;;;1.95;1.60;;;11.50;99.90;;;;;;5016073;28;20032;-41
2023/07/06 03:08:39;;;;;;;3.80;2.05;;;11.60;99.90;;;;;;5007585;28;20034;-41
2023/07/06 03:11:04;;;;;;;3.28;2.10;;;11.60;99.90;;;;;;5021808;28;20119;-40
2023/07/06 03:13:31;;;;;;;2.88;2.13;;;11.60;99.90;;;;;;5021944;28;20045;-41
2023/07/06 03:15:57;;;;;;;2.95;2.13;;;11.60;99.90;;;;;;5018525;28;20033;-41
2023/07/06 03:18:23;;;;;;;2.17;1.80;;;11.50;99.90;;;;;;5004799;28;21658;-41
2023/07/06 03:20:49;;;;;;;2.25;1.83;;;11.50;99.90;;;;;;5018865;28;20022;-42
2023/07/06 03:23:15;;;;;;;2.58;1.98;;;11.50;99.90;;;;;;5023138;28;20039;-39
2023/07/06 03:25:41;;;;;;;3.60;2.10;;;11.60;99.90;;;;;;5006630;28;20474;-41
2023/07/06 03:28:06;;;;;;;3.10;2.10;;;11.50;99.90;;;;;;5021947;28;20030;-41
2023/07/06 03:30:32;;;;;;;2.95;2.20;;;11.40;99.90;;;;;;5018548;28;20026;-38
2023/07/06 03:32:59;;;;;;;2.45;2.25;;;11.30;99.90;;;;;;5024524;28;20053;-42
2023/07/06 03:35:26;;;;;;;3.75;2.40;;;11.30;99.90;;;;;;5021171;28;20033;-40
2023/07/06 03:37:55;;;;;;;4.32;1.90;;;11.30;99.90;;;;;;5022165;28;20495;-41
2023/07/06 03:40:21;;;;;;;4.45;1.90;;;11.40;99.90;;;;;;5020093;28;20403;-41
2023/07/06 03:42:47;;;;;;;3.28;2.30;;;11.40;99.90;;;;;;5021235;28;20037;-41
2023/07/06 03:45:14;;;;;;;3.58;2.80;;;11.40;99.90;;;;;;5020367;28;20446;-41
2023/07/06 03:47:45;;;;;;;3.65;2.05;;;11.40;99.90;;;;;;5020553;28;20045;-42
2023/07/06 03:50:14;;;;;;;4.10;1.90;;;11.50;99.90;;;;;;5021752;28;20033;-39
2023/07/06 03:52:41;;;;;;;3.30;2.13;;;11.50;99.90;;;;;;5018621;28;20029;-40
2023/07/06 03:55:12;;;;;;;4.10;2.13;;;11.40;99.90;;;;;;5021007;28;20628;-41
2023/07/06 03:57:39;;;;;;;3.55;2.33;;;11.40;99.90;;;;;;5021422;28;20026;-42
2023/07/06 04:00:17;;;;;;;3.83;2.10;;;11.40;99.90;;;;;;5020723;28;20053;-39
2023/07/06 04:02:43;;;;;;;2.75;2.20;;;11.50;99.90;;;;;;5017413;28;20137;-41
2023/07/06 04:05:09;;;;;;;3.15;2.55;;;11.40;99.90;;;;;;5016193;28;20083;-41
2023/07/06 04:07:35;;;;;;;3.13;2.00;;;11.40;99.90;;;;;;5020932;28;20038;-39
2023/07/06 04:10:01;;;;;;;2.92;1.90;;;11.40;99.90;;;;;;5022399;28;20036;-33
2023/07/06 04:12:26;;;;;;;2.67;1.83;;;11.40;99.90;;;;;;5024657;28;20029;-32
2023/07/06 04:14:54;;;;;;;3.28;1.65;;;11.40;99.90;;;;;;5024243;28;20037;-35
2023/07/06 04:17:20;;;;;;;2.38;1.80;;;11.50;99.90;;;;;;5022804;28;20037;-34
2023/07/06 04:19:46;;;;;;;1.98;1.70;;;11.50;99.90;;;;;;5023388;28;20037;-34
2023/07/06 04:22:12;;;;;;;4.18;2.17;;;11.50;99.90;;;;;;5025001;28;20033;-33
2023/07/06 04:24:37;;;;;;;2.50;2.10;;;11.50;99.90;;;;;;5026373;28;20041;-33
2023/07/06 04:27:05;;;;;;;3.25;2.22;;;11.50;99.90;;;;;;5013149;28;20033;-38
2023/07/06 04:29:31;;;;;;;2.70;1.92;;;11.60;99.90;;;;;;5026293;28;20033;-34
2023/07/06 04:31:57;;;;;;;2.33;2.13;;;11.60;99.90;;;;;;5023837;28;20035;-33
2023/07/06 04:34:25;;;;;;;2.97;2.10;;;11.70;99.90;;;;;;5024012;28;20116;-32
2023/07/06 04:36:51;;;;;;;4.20;2.08;;;11.70;99.90;;;;;;5024858;28;20052;-33
2023/07/06 04:39:17;;;;;;;2.75;1.98;;;11.80;99.90;;;;;;5022313;28;20394;-33
2023/07/06 04:41:43;;;;;;;4.47;2.10;;;11.80;99.90;;;;;;5023158;28;20036;-34
2023/07/06 04:44:09;;;;;;;4.07;2.00;;;11.90;99.90;;;;;;5018700;28;20087;-32
2023/07/06 04:46:36;;;;;;;3.25;2.25;;;11.90;99.90;;;;;;5023444;28;20025;-32
2023/07/06 04:49:02;;;;;;;3.78;2.10;;;12.00;99.90;;;;;;5025233;28;20151;-35
2023/07/06 04:51:28;;;;;;;3.20;2.22;;;12.00;99.90;;;;;;5020110;28;20538;-32
2023/07/06 04:53:54;;;;;;;4.15;2.20;;;12.00;99.90;;;;;;5026429;28;20034;-36
2023/07/06 04:56:21;;;;;;;4.28;2.15;;;12.10;99.90;;;;;;5024722;28;20050;-33
2023/07/06 04:58:47;;;;;;;3.08;2.42;;;12.20;99.90;;;;;;5019901;28;20084;-33
2023/07/06 05:01:14;;;;;;;3.95;2.75;;;12.30;99.90;;;;;;5020234;28;20124;-33
2023/07/06 05:03:40;;;;;;;3.35;2.35;;;12.50;99.90;;;;;;5030623;28;20025;-32
2023/07/06 05:06:12;;;;;;;3.35;2.47;;;12.60;99.90;;;;;;5024094;28;20025;-33
2023/07/06 05:08:43;;;;;;;3.97;2.28;;;12.70;99.90;;;;;;5023690;28;20558;-36
2023/07/06 05:11:09;;;;;;;4.85;2.20;;;12.80;99.90;;;;;;5022928;28;20483;-33
2023/07/06 05:13:34;;;;;;;5.07;2.60;;;13.00;99.90;;;;;;5021657;28;20041;-32
2023/07/06 05:16:00;;;;;;;3.30;2.28;;;13.00;99.90;;;;;;5019408;28;20514;-33
2023/07/06 05:18:26;;;;;;;3.53;2.33;;;13.10;99.90;;;;;;5023473;28;20534;-32
2023/07/06 05:20:57;;;;;;;5.35;2.88;;;13.10;99.90;;;;;;5022780;28;20176;-40
2023/07/06 05:23:25;;;;;;;5.07;2.90;;;13.20;99.90;;;;;;5022473;28;20034;-41
2023/07/06 05:25:51;;;;;;;;;;;13.30;99.90;;;;;;5020893;28;20034;-41
2023/07/06 05:28:19;;;;;;;4.00;2.45;;;13.30;99.90;;;;;;5023155;28;20359;-41
2023/07/06 05:30:45;;;;;;;3.72;2.53;;;13.50;99.90;;;;;;5021581;28;20142;-40
2023/07/06 05:33:12;;;;;;;5.32;3.05;;;13.60;99.90;;;;;;5022316;28;20033;-41
2023/07/06 05:35:38;;;;;;;4.27;2.80;;;13.70;99.90;;;;;;5022759;28;20030;-42
2023/07/06 05:38:07;;;;;;;4.72;3.03;;;13.80;99.90;;;;;;5024253;28;20022;-41
2023/07/06 05:40:32;;;;;;;5.90;2.90;;;14.00;99.90;;;;;;5019957;28;20026;-41
2023/07/06 05:42:58;;;;;;;5.10;2.97;;;14.00;99.90;;;;;;5018613;28;20041;-39
2023/07/06 05:45:25;;;;;;;5.15;3.03;;;14.20;99.90;;;;;;5022709;28;20537;-41
2023/07/06 05:47:51;;;;;;;5.15;2.80;;;14.30;99.90;;;;;;5023982;28;20411;-41
2023/07/06 05:50:16;;;;;;;3.28;2.58;;;14.40;99.90;;;;;;5019498;28;20026;-41
2023/07/06 05:52:42;;;;;;;3.70;2.83;;;14.50;99.90;;;;;;5017259;28;20092;-35
2023/07/06 05:55:08;;;;;;;5.07;3.38;;;14.70;99.90;;;;;;5024164;28;20034;-40
2023/07/06 05:57:34;;;;;;;4.47;2.72;;;14.80;99.90;;;;;;5019792;28;20037;-41
2023/07/06 06:00:09;;;;;;;4.22;3.03;;;14.90;99.90;;;;;;5020527;28;20943;-39
2023/07/06 06:02:36;;;;;;;4.43;2.92;;;14.90;99.90;;;;;;5021824;28;20037;-40
2023/07/06 06:05:02;;;;;;;3.78;2.72;;;15.00;99.90;;;;;;5025307;28;20850;-39
2023/07/06 06:07:31;;;;;;;5.05;3.08;;;15.00;99.90;;;;;;5020702;28;20034;-38
2023/07/06 06:09:57;;;;;;;;;;;15.00;99.90;;;;;;5023935;28;20074;-44
2023/07/06 06:12:23;;;;;;;4.45;2.58;;;15.00;99.90;;;;;;5021137;28;19916;-41
2023/07/06 06:14:50;;;;;;;5.50;3.10;;;15.10;99.90;;;;;;5021672;28;20530;-39
2023/07/06 06:17:18;;;;;;;3.92;3.13;;;15.10;99.90;;;;;;5018419;28;20061;-40
2023/07/06 06:19:45;;;;;;;;;;;15.30;99.90;;;;;;5001162;28;20053;-38
2023/07/06 06:22:12;;;;;;;6.10;3.30;;;15.50;99.90;;;;;;5022236;28;19982;-35
2023/07/06 06:24:38;;;;;;;3.78;2.95;;;15.70;99.90;;;;;;5022055;28;20533;-41
2023/07/06 06:27:05;;;;;;;4.65;3.15;;;15.80;99.90;;;;;;5021677;28;20041;-41
2023/07/06 06:29:32;;;;;;;4.47;3.20;;;15.90;99.90;;;;;;5022541;28;20029;-37
2023/07/06 06:31:59;;;;;;;4.22;2.85;;;16.20;99.90;;;;;;5021210;28;20038;-33
2023/07/06 06:34:25;;;;;;;4.00;3.38;;;16.50;99.90;;;;;;5023542;28;20037;-33
2023/07/06 06:36:51;;;;;;;5.53;3.67;;;16.90;99.90;;;;;;5018884;28;20132;-36
2023/07/06 06:39:17;;;;;;;6.85;3.47;;;17.10;99.90;;;;;;5022646;28;20144;-34
2023/07/06 06:41:43;;;;;;;5.13;3.33;;;17.30;99.90;;;;;;5019734;28;20087;-33
2023/07/06 06:44:14;;;;;;;5.13;3.00;;;17.60;99.90;;;;;;5023198;28;20472;-34
2023/07/06 06:46:40;;;;;;;5.40;2.90;;;17.80;99.90;;;;;;5025546;28;20144;-32
2023/07/06 06:49:05;;;;;;;5.75;3.05;;;18.10;99.90;;;;;;5020232;28;20730;-34
2023/07/06 06:51:31;;;;;;;4.05;3.00;;;18.20;99.90;;;;;;5024179;28;20061;-34
2023/07/06 06:53:57;;;;;;;5.05;3.30;;;18.20;99.90;;;;;;5024094;28;20021;-33
2023/07/06 06:56:23;;;;;;;5.07;3.35;;;18.50;99.90;;;;;;5023240;28;20037;-35
2023/07/06 06:58:48;;;;;;;3.97;2.88;;;18.70;99.90;;;;;;5022113;28;20037;-34
2023/07/06 07:01:15;;;;;;;5.57;3.33;;;18.70;99.90;;;;;;5021579;28;20045;-36
2023/07/06 07:03:40;;;;;;;4.68;3.35;;;19.00;99.90;;;;;;5023083;28;20545;-33
2023/07/06 07:06:11;;;;;;;5.07;3.35;;;19.10;99.90;;;;;;5021266;28;20025;-38
2023/07/06 07:08:45;;;;;;;6.43;3.40;;;19.20;99.90;;;;;;5020323;28;20566;-33
2023/07/06 07:11:12;;;;;;;5.03;3.45;;;19.50;99.90;;;;;;5016948;28;20034;-33
2023/07/06 07:13:40;;;;;;;5.03;3.72;;;19.40;99.90;;;;;;5023529;28;20021;-33
2023/07/06 07:16:06;;;;;;;4.47;3.35;;;19.70;99.90;;;;;;5017651;28;20025;-34
2023/07/06 07:18:34;;;;;;;6.20;3.15;;;19.80;99.90;;;;;;5022815;28;20036;-32
2023/07/06 07:21:01;;;;;;;5.87;3.70;;;19.90;99.90;;;;;;5023643;28;20048;-32
2023/07/06 07:23:42;;;;;;;5.85;3.22;;;20.20;99.90;;;;;;5022878;28;20032;-33
2023/07/06 07:26:12;;;;;;;4.50;3.22;;;20.10;99.90;;;;;;5021691;28;20104;-32
2023/07/06 07:28:39;;;;;;;4.90;3.20;;;19.90;99.90;;;;;;5020643;28;20021;-33
2023/07/06 07:31:07;;;;;;;5.70;3.67;;;20.00;99.90;;;;;;5018905;28;20388;-33
2023/07/06 07:33:34;;;;;;;4.28;3.53;;;20.20;99.90;;;;;;5022168;28;20091;-34
2023/07/06 07:36:02;;;;;;;4.90;3.35;;;20.20;99.90;;;;;;5024277;28;20050;-34
2023/07/06 07:38:28;;;;;;;4.68;3.42;;;20.10;99.90;;;;;;5022774;28;20029;-32
2023/07/06 07:40:56;;;;;;;5.55;3.20;;;20.10;99.90;;;;;;5021888;28;20037;-40
2023/07/06 07:43:26;;;;;;;;;;;19.90;99.90;;;;;;5021560;28;20080;-40
2023/07/06 07:45:57;;;;;;;5.07;3.03;;;19.90;99.90;;;;;;5024257;28;19917;-40
2023/07/06 07:48:24;;;;;;;5.32;3.20;;;20.20;99.90;;;;;;5023415;28;20036;-38
2023/07/06 07:50:56;;;;;;;4.18;3.17;;;20.60;99.90;;;;;;5030388;28;20482;-32
2023/07/06 07:53:26;;;;;;;4.82;2.85;;;20.60;99.90;;;;;;5024902;28;20109;-33
2023/07/06 07:55:54;;;;;;;6.03;3.05;;;20.80;99.90;;;;;;5026009;28;20038;-33
2023/07/06 07:58:22;;;;;;;3.40;2.65;;;21.10;99.90;;;;;;5004165;28;20113;-33
2023/07/06 08:00:49;;;;;;;4.85;2.85;;;21.50;99.90;;;;;;5024604;28;20399;-32
2023/07/06 08:03:15;;;;;;;4.57;3.23;;;21.50;99.90;;;;;;5024236;28;20562;-35
2023/07/06 08:05:42;;;;;;;4.57;3.15;;;20.80;99.90;;;;;;5023356;28;20040;-34
2023/07/06 08:08:09;;;;;;;4.13;2.80;;;21.10;99.90;;;;;;5025092;28;20029;-32
2023/07/06 08:10:39;;;;;;;4.63;3.22;;;21.20;99.90;;;;;;5025925;28;20029;-36
2023/07/06 08:13:07;;;;;;;4.45;3.15;;;21.30;99.90;;;;;;5025807;28;20112;-31
2023/07/06 08:15:33;;;;;;;4.07;2.83;;;21.20;99.90;;;;;;5025467;28;20502;-32
2023/07/06 08:18:00;;;;;;;4.45;3.00;;;21.10;99.90;;;;;;5021828;28;20045;-33
2023/07/06 08:20:28;;;;;;;4.47;2.83;;;21.40;99.90;;;;;;5024480;28;20033;-33
2023/07/06 08:22:57;;;;;;;;;;;21.50;99.90;;;;;;5021100;28;20049;-32
2023/07/06 08:25:25;;;;;;;4.82;3.25;;;21.50;99.90;;;;;;5021498;28;19959;-32
2023/07/06 08:27:51;;;;;;;;;;;21.60;99.90;;;;;;5024415;28;20038;-35
2023/07/06 08:30:16;;;;;;;8.20;3.55;;;21.50;99.90;;;;;;5024213;28;20391;-34
2023/07/06 08:32:42;;;;;;;5.55;3.17;;;21.20;99.90;;;;;;5025453;28;20081;-32
2023/07/06 08:35:08;;;;;;;5.68;3.15;;;20.70;99.90;;;;;;5025293;28;20087;-34
2023/07/06 08:37:34;;;;;;;5.53;3.20;;;20.40;99.90;;;;;;5027464;28;20030;-34
2023/07/06 08:39:59;;;;;;;3.33;2.88;;;20.20;99.90;;;;;;5026196;28;20033;-32
2023/07/06 08:42:25;;;;;;;3.80;2.90;;;20.40;99.90;;;;;;5026123;28;20029;-33
2023/07/06 08:44:55;;;;;;;3.78;3.20;;;20.30;99.90;;;;;;5018954;28;20081;-33
2023/07/06 08:47:25;;;;;;;3.28;2.63;;;20.60;99.90;;;;;;5025479;28;20159;-32
2023/07/06 08:49:51;;;;;;;4.95;3.10;;;20.40;99.90;;;;;;5024631;28;20037;-31
2023/07/06 08:52:19;;;;;;;4.63;3.25;;;20.20;99.90;;;;;;5026502;28;20029;-36
2023/07/06 08:54:50;;;;;;;4.13;2.90;;;20.30;99.90;;;;;;5027262;28;20065;-31
2023/07/06 08:57:21;;;;;;;4.43;2.75;;;20.70;99.90;;;;;;5025718;28;20060;-31
2023/07/06 08:59:49;;;;;;;3.80;2.88;;;21.20;99.90;;;;;;5021937;28;20402;-32
2023/07/06 09:02:26;;;;;;;5.05;2.50;;;21.30;99.90;;;;;;5019965;28;20049;-31
2023/07/06 09:04:54;;;;;;;3.72;2.47;;;21.90;99.90;;;;;;5026057;28;20029;-33
2023/07/06 09:07:34;;;;;;;4.47;3.00;;;22.00;99.90;;;;;;5023237;28;20041;-33
2023/07/06 09:10:01;;;;;;;5.28;2.80;;;22.50;99.90;;;;;;5019208;28;20678;-33
2023/07/06 09:12:34;;;;;;;3.80;2.70;;;23.10;99.90;;;;;;5020265;28;20032;-32
2023/07/06 09:15:02;;;;;;;3.75;2.63;;;23.60;99.90;;;;;;5018470;28;20030;-33
2023/07/06 09:17:28;;;;;;;3.47;2.50;;;23.50;99.90;;;;;;5024845;28;20037;-32
2023/07/06 09:19:54;;;;;;;3.47;2.65;;;23.80;99.90;;;;;;5027210;28;20048;-33
2023/07/06 09:22:23;;;;;;;5.13;2.50;;;23.90;99.90;;;;;;5025607;28;20384;-32
2023/07/06 09:24:50;;;;;;;6.18;2.45;;;23.50;99.90;;;;;;5027447;28;20091;-33
2023/07/06 09:27:23;;;;;;;5.00;2.85;;;23.60;99.90;;;;;;5019801;28;20048;-32
2023/07/06 09:30:05;;;;;;;4.75;2.58;;;23.80;99.90;;;;;;5027011;28;20089;-34
2023/07/06 09:32:32;;;;;;;4.53;2.55;;;24.20;99.90;;;;;;5028405;28;20379;-32
2023/07/06 09:35:12;;;;;;;4.15;2.13;;;24.20;99.90;;;;;;5025926;28;20103;-34
2023/07/06 09:37:50;;;;;;;2.85;2.53;;;24.00;99.90;;;;;;5023552;28;20063;-32
2023/07/06 09:40:15;;;;;;;4.57;2.70;;;24.00;99.90;;;;;;5024851;28;20029;-35
2023/07/06 09:42:44;;;;;;;3.00;2.47;;;24.00;99.90;;;;;;5019001;28;20131;-36
2023/07/06 09:45:22;;;;;;;3.20;2.33;;;24.20;99.90;;;;;;5023537;28;20034;-34
2023/07/06 09:47:54;;;;;;;4.97;2.72;;;24.20;99.90;;;;;;5022774;28;20053;-33
2023/07/06 09:50:27;;;;;;;12.48;3.20;;;24.00;99.90;;;;;;5023496;28;20037;-35
2023/07/06 09:52:54;;;;;;;3.35;2.53;;;23.50;99.90;;;;;;5022621;28;20433;-34
2023/07/06 09:55:29;;;;;;;3.00;2.08;;;23.50;99.90;;;;;;5020829;28;20131;-32
2023/07/06 09:57:55;;;;;;;2.60;2.28;;;23.60;99.90;;;;;;5022417;28;20037;-32
2023/07/06 10:00:28;;;;;;;2.85;2.33;;;23.90;99.90;;;;;;5024872;28;20116;-40
2023/07/06 10:03:35;;;;;;;3.15;2.50;;;24.00;99.90;;;;;;5022792;28;20230;-41
2023/07/06 10:06:12;;;;;;;3.22;2.38;;;24.10;99.90;;;;;;5004388;28;20034;-41
2023/07/06 10:08:44;;;;;;;3.88;2.80;;;24.50;99.90;;;;;;5020031;28;20531;-41
2023/07/06 10:11:42;;;;;;;4.00;2.58;;;24.90;99.90;;;;;;5022414;28;20068;-30
2023/07/06 10:14:26;;;;;;;3.78;2.45;;;25.00;99.90;;;;;;5018607;28;20079;-31
2023/07/06 10:17:14;;;;;;;3.85;2.70;;;25.60;99.90;;;;;;5022811;28;20121;-34
2023/07/06 10:20:05;;;;;;;3.20;2.50;;;25.70;99.90;;;;;;5014551;28;20041;-30
2023/07/06 10:23:14;;;;;;;3.03;2.60;;;25.40;99.90;;;;;;5021994;28;20045;-31
2023/07/06 10:26:09;;;;;;;4.35;2.50;;;25.50;99.90;;;;;;5021468;28;20030;-31
2023/07/06 10:28:50;;;;;;;5.80;2.78;;;25.80;99.90;;;;;;5023353;28;20049;-30
2023/07/06 10:31:19;;;;;;;3.10;2.45;;;24.80;99.90;;;;;;5008114;28;20088;-31
2023/07/06 10:33:55;;;;;;;4.68;2.83;;;24.80;99.90;;;;;;5023808;28;20029;-31
2023/07/06 10:36:22;;;;;;;3.45;2.65;;;24.30;99.90;;;;;;5021274;28;20439;-31
2023/07/06 10:38:48;;;;;;;3.13;2.53;;;24.80;99.90;;;;;;5024402;28;20483;-31
2023/07/06 10:41:14;;;;;;;3.67;2.67;;;24.60;99.90;;;;;;5023756;28;20120;-31
2023/07/06 10:43:41;;;;;;;3.08;2.45;;;24.50;99.90;;;;;;5023526;28;20036;-31
2023/07/06 10:46:36;;;;;;;3.53;2.53;;;24.40;99.90;;;;;;5024299;28;20547;-30
2023/07/06 10:49:19;;;;;;;3.60;2.63;;;24.10;99.90;;;;;;5012198;28;20034;-33
2023/07/06 10:52:00;;;;;;;3.25;2.35;;;24.10;99.90;;;;;;5022007;28;20033;-32
2023/07/06 10:54:30;;;;;;;4.60;3.00;;;24.10;99.90;;;;;;5020038;28;20037;-34
2023/07/06 10:57:11;;;;;;;3.35;2.75;;;24.30;99.90;;;;;;5022383;28;20372;-31
2023/07/06 11:00:14;;;;;;;2.67;2.13;;;24.80;99.90;;;;;;5022531;28;20053;-31
2023/07/06 11:02:40;;;;;;;3.63;2.30;;;24.60;99.90;;;;;;5019019;28;20585;-31
2023/07/06 11:05:48;;;;;;;3.53;2.40;;;24.20;99.90;;;;;;5026612;28;20563;-31
2023/07/06 11:08:14;;;;;;;3.83;2.65;;;23.60;99.90;;;;;;4944678;28;20052;-30
2023/07/06 11:10:47;;;;;;;4.32;2.95;;;23.70;99.90;;;;;;4961799;28;20026;-41
2023/07/06 11:13:17;;;;;;;3.30;2.60;;;23.90;99.90;;;;;;4995012;28;20513;-41
2023/07/06 11:15:56;;;;;;;4.00;2.53;;;24.10;99.90;;;;;;5021801;28;20033;-41
2023/07/06 11:18:23;;;;;;;4.78;2.58;;;24.20;99.90;;;;;;5022239;28;20041;-41
2023/07/06 11:21:18;;;;;;;3.20;2.50;;;24.00;99.90;;;;;;5024068;28;20117;-40
2023/07/06 11:23:45;;;;;;;3.97;2.63;;;24.30;99.90;;;;;;5016245;28;20077;-37
2023/07/06 11:26:51;;;;;;;3.35;2.60;;;24.60;99.90;;;;;;5023070;28;20041;-39
2023/07/06 11:29:24;;;;;;;4.60;2.70;;;25.10;99.90;;;;;;5021843;28;20026;-38
2023/07/06 11:32:00;;;;;;;3.50;2.72;;;25.10;99.90;;;;;;5018002;28;20503;-39
2023/07/06 11:34:48;;;;;;;3.22;2.47;;;25.50;99.90;;;;;;5022276;28;20425;-41
2023/07/06 11:37:25;;;;;;;4.35;2.60;;;25.70;99.90;;;;;;5018749;28;20483;-42
2023/07/06 11:40:26;;;;;;;3.75;2.58;;;24.90;99.90;;;;;;5021155;28;20036;-41
2023/07/06 11:43:03;;;;;;;4.93;2.92;;;24.70;99.90;;;;;;5019461;28;20046;-41
2023/07/06 11:45:58;;;;;;;4.20;2.67;;;25.00;99.90;;;;;;5019825;28;20549;-41
2023/07/06 11:48:45;;;;;;;4.13;2.97;;;24.90;99.90;;;;;;5021843;28;20109;-41
2023/07/06 11:51:11;;;;;;;;;;;25.60;99.90;;;;;;5016940;28;20038;-38
2023/07/06 11:53:54;;;;;;;6.45;2.92;;;25.40;99.90;;;;;;5015451;28;20543;-40
2023/07/06 11:56:50;;;;;;;3.08;2.47;;;25.50;99.90;;;;;;5023920;28;20079;-40
2023/07/06 11:59:36;;;;;;;3.65;2.42;;;25.90;99.90;;;;;;5019508;28;20107;-38
2023/07/06 12:02:14;;;;;;;2.90;2.47;;;25.10;99.90;;;;;;5020957;28;20140;-37
2023/07/06 12:04:40;;;;;;;3.10;2.33;;;24.80;99.90;;;;;;5025506;28;20427;-42
2023/07/06 12:07:29;;;;;;;4.82;2.70;;;25.20;99.90;;;;;;5022329;28;20065;-39
2023/07/06 12:09:54;;;;;;;3.92;2.75;;;25.40;99.90;;;;;;5018973;28;20060;-41
2023/07/06 12:12:23;;;;;;;4.30;2.85;;;25.50;99.90;;;;;;5022513;28;20022;-41
2023/07/06 12:14:52;;;;;;;5.18;3.25;;;25.50;99.90;;;;;;5019240;28;20111;-40
2023/07/06 12:17:18;;;;;;;22.85;3.95;;;25.40;99.90;;;;;;5024198;28;20049;-37
2023/07/06 12:19:44;;;;;;;7.28;3.28;;;24.70;99.90;;;;;;5019249;28;20431;-38
2023/07/06 12:22:18;;;;;;;3.15;2.58;;;24.60;99.90;;;;;;5019148;28;20121;-42
2023/07/06 12:24:44;;;;;;;3.63;2.50;;;25.30;99.90;;;;;;5017945;28;20022;-41
2023/07/06 12:27:15;;;;;;;4.60;2.88;;;26.00;99.90;;;;;;5019528;28;20387;-40
2023/07/06 12:29:41;;;;;;;3.22;2.53;;;26.50;99.90;;;;;;5018449;28;20101;-35
2023/07/06 12:32:19;;;;;;;4.80;2.88;;;26.80;99.90;;;;;;5019451;28;20116;-32
2023/07/06 12:34:49;;;;;;;3.88;2.70;;;26.80;99.90;;;;;;5019473;28;20113;-34
2023/07/06 12:37:17;;;;;;;4.15;2.63;;;26.30;99.90;;;;;;5018849;28;20036;-33
2023/07/06 12:39:43;;;;;;;;;;;26.30;99.90;;;;;;5018097;28;20021;-34
2023/07/06 12:42:15;;;;;;;4.05;2.95;;;26.50;99.90;;;;;;5022469;28;19932;-33
2023/07/06 12:44:43;;;;;;;3.72;2.58;;;26.60;99.90;;;;;;5021855;28;20060;-35
2023/07/06 12:47:20;;;;;;;;;;;26.70;99.90;;;;;;5026739;28;20025;-33
2023/07/06 12:49:47;;;;;;;4.07;3.15;;;26.60;99.90;;;;;;5023214;28;19920;-32
2023/07/06 12:52:13;;;;;;;4.55;2.63;;;26.40;99.90;;;;;;5027262;28;20034;-33
2023/07/06 12:54:48;;;;;;;3.72;2.63;;;26.30;99.90;;;;;;5022939;28;20025;-33
2023/07/06 12:57:23;;;;;;;4.20;3.15;;;26.60;99.90;;;;;;5024855;28;20260;-33
2023/07/06 12:59:57;;;;;;;3.95;2.72;;;26.70;99.90;;;;;;5024780;28;20052;-33
2023/07/06 13:02:29;;;;;;;4.18;2.85;;;27.00;99.90;;;;;;5022663;28;20632;-34
2023/07/06 13:04:55;;;;;;;5.25;3.22;;;27.10;99.90;;;;;;5023666;28;20052;-32
2023/07/06 13:07:26;;;;;;;4.95;2.70;;;27.30;99.90;;;;;;5023385;28;20041;-34
2023/07/06 13:09:52;;;;;;;4.55;3.10;;;27.00;99.90;;;;;;5021813;28;20021;-32